createdAt,value
2023-03-22T00:02:30.545Z,37.90
2023-03-22T00:05:02.720Z,37.30
2023-03-22T00:07:34.603Z,39.00
2023-03-22T00:10:08.219Z,37.50
2023-03-22T00:12:40.120Z,37.10
2023-03-22T00:15:14.484Z,37.30
2023-03-22T00:17:46.533Z,36.50
2023-03-22T00:20:23.608Z,37.90
2023-03-22T00:22:55.791Z,38.10
2023-03-22T00:25:27.842Z,38.00
2023-03-22T00:27:59.738Z,39.60
2023-03-22T00:30:54.183Z,39.10
2023-03-22T00:33:26.093Z,37.20
2023-03-22T00:36:01.204Z,39.50
2023-03-22T00:38:42.564Z,37.00
2023-03-22T00:41:16.931Z,35.40
2023-03-22T00:43:50.737Z,36.50
2023-03-22T00:46:23.136Z,36.50
2023-03-22T00:48:54.716Z,35.90
2023-03-22T00:51:26.696Z,35.40
2023-03-22T00:53:58.998Z,36.90
2023-03-22T00:56:33.915Z,36.80
2023-03-22T00:59:12.135Z,36.90
2023-03-22T01:01:45.602Z,36.20
2023-03-22T01:04:17.997Z,36.20
2023-03-22T01:06:50.771Z,35.40
2023-03-22T01:09:24.107Z,34.90
2023-03-22T01:11:57.796Z,35.60
2023-03-22T01:14:31.917Z,36.20
2023-03-22T01:17:04.527Z,35.60
2023-03-22T01:19:40.649Z,34.70
2023-03-22T01:22:15.804Z,36.00
2023-03-22T01:24:49.964Z,34.10
2023-03-22T01:27:23.519Z,35.30
2023-03-22T01:29:56.013Z,35.40
2023-03-22T01:32:34.206Z,35.00
2023-03-22T01:35:11.165Z,37.30
2023-03-22T01:37:47.437Z,33.40
2023-03-22T01:40:24.932Z,35.40
2023-03-22T01:42:58.723Z,35.80
2023-03-22T01:45:43.108Z,36.60
2023-03-22T01:48:31.709Z,35.40
2023-03-22T01:51:15.318Z,34.90
2023-03-22T01:54:07.145Z,34.70
2023-03-22T01:56:43.157Z,34.20
2023-03-22T01:59:20.918Z,33.30
2023-03-22T02:02:14.875Z,33.80
2023-03-22T02:04:50.900Z,34.70
2023-03-22T02:07:27.127Z,34.00
2023-03-22T02:10:00.801Z,34.70
2023-03-22T02:12:51.092Z,34.90
2023-03-22T02:15:39.613Z,36.10
2023-03-22T02:18:52.550Z,33.30
2023-03-22T02:21:41.592Z,35.60
2023-03-22T02:24:47.513Z,36.20
2023-03-22T02:27:53.780Z,34.40
2023-03-22T02:30:52.530Z,34.70
2023-03-22T02:33:41.558Z,33.90
2023-03-22T02:36:30.870Z,36.30
2023-03-22T02:39:24.198Z,34.40
2023-03-22T02:42:12.097Z,34.30
2023-03-22T02:44:52.615Z,33.90
2023-03-22T02:47:31.453Z,35.30
2023-03-22T02:50:10.146Z,33.90
2023-03-22T02:52:46.658Z,33.90
2023-03-22T02:55:22.527Z,33.60
2023-03-22T02:57:59.129Z,33.30
2023-03-22T03:00:32.271Z,34.60
2023-03-22T03:03:11.578Z,33.60
2023-03-22T03:05:48.146Z,35.40
2023-03-22T03:08:21.800Z,33.90
2023-03-22T03:10:55.152Z,34.50
2023-03-22T03:13:27.189Z,35.80
2023-03-22T03:16:01.665Z,35.00
2023-03-22T03:18:45.793Z,34.20
2023-03-22T03:21:30.133Z,31.70
2023-03-22T03:24:13.786Z,34.00
2023-03-22T03:26:57.626Z,34.30
2023-03-22T03:29:39.848Z,35.30
2023-03-22T03:32:18.631Z,35.70
2023-03-22T03:34:57.424Z,35.20
2023-03-22T03:37:33.916Z,36.20
2023-03-22T03:40:11.425Z,36.30
2023-03-22T03:42:49.541Z,35.30
2023-03-22T03:45:23.284Z,35.50
2023-03-22T03:47:58.972Z,35.10
2023-03-22T03:50:31.275Z,36.80
2023-03-22T03:53:03.590Z,34.20
2023-03-22T03:55:37.622Z,37.00
2023-03-22T03:58:10.016Z,35.70
2023-03-22T04:00:42.173Z,33.70
2023-03-22T04:03:27.607Z,33.90
2023-03-22T04:06:19.804Z,34.30
2023-03-22T04:08:56.662Z,35.10
2023-03-22T04:11:30.854Z,34.80
2023-03-22T04:14:05.301Z,35.10
2023-03-22T04:16:37.276Z,22.80
2023-03-22T04:19:09.632Z,35.40
2023-03-22T04:21:41.967Z,33.90
2023-03-22T04:24:14.368Z,35.50
2023-03-22T04:26:47.579Z,34.60
2023-03-22T04:29:48.571Z,34.60
2023-03-22T04:32:56.333Z,34.90
2023-03-22T04:35:36.356Z,33.50
2023-03-22T04:38:09.658Z,36.80
2023-03-22T04:40:46.932Z,35.20
2023-03-22T04:43:25.828Z,34.40
2023-03-22T04:46:02.916Z,32.80
2023-03-22T04:48:42.742Z,35.50
2023-03-22T04:51:15.514Z,33.60
2023-03-22T04:53:55.812Z,34.70
2023-03-22T04:56:28.673Z,34.30
2023-03-22T04:59:01.533Z,32.70
2023-03-22T05:04:13.499Z,32.40
2023-03-22T05:06:46.467Z,34.10
2023-03-22T05:09:25.234Z,32.80
2023-03-22T05:11:58.325Z,34.90
2023-03-22T05:14:56.645Z,36.40
2023-03-22T05:17:31.953Z,33.00
2023-03-22T05:22:42.751Z,34.10
2023-03-22T05:25:16.121Z,32.80
2023-03-22T05:27:50.258Z,34.70
2023-03-22T05:33:24.110Z,32.40
2023-03-22T05:35:58.554Z,34.40
2023-03-22T05:38:32.335Z,33.20
2023-03-22T05:41:05.574Z,33.80
2023-03-22T05:43:38.917Z,34.60
2023-03-22T05:46:13.097Z,33.60
2023-03-22T05:48:58.383Z,33.30
2023-03-22T05:51:30.696Z,34.80
2023-03-22T05:54:03.318Z,32.50
2023-03-22T05:56:40.669Z,35.60
2023-03-22T05:59:12.569Z,22.60
2023-03-22T06:04:25.590Z,29.50
2023-03-22T06:07:10.925Z,30.30
2023-03-22T06:09:52.670Z,21.80
2023-03-22T06:12:30.173Z,28.20
2023-03-22T06:15:13.036Z,25.90
2023-03-22T06:18:04.768Z,27.70
2023-03-22T06:20:41.860Z,28.90
2023-03-22T06:23:24.917Z,28.00
2023-03-22T06:25:56.860Z,22.40
2023-03-22T06:28:29.990Z,29.40
2023-03-22T06:31:09.306Z,29.50
2023-03-22T06:34:08.052Z,28.50
2023-03-22T06:36:45.668Z,28.40
2023-03-22T06:39:36.727Z,26.90
2023-03-22T06:42:08.744Z,27.60
2023-03-22T06:44:43.864Z,28.50
2023-03-22T06:47:21.951Z,28.30
2023-03-22T06:50:02.810Z,28.00
2023-03-22T06:52:54.354Z,27.40
2023-03-22T06:55:26.569Z,27.70
2023-03-22T06:58:04.839Z,27.60
2023-03-22T07:03:07.787Z,27.50
2023-03-22T07:06:01.613Z,26.60
2023-03-22T07:08:37.052Z,23.80
2023-03-22T07:11:10.273Z,24.10
2023-03-22T07:13:42.612Z,26.40
2023-03-22T07:16:19.854Z,25.30
2023-03-22T07:18:57.109Z,24.00
2023-03-22T07:21:31.222Z,23.90
2023-03-22T07:24:06.695Z,23.90
2023-03-22T07:26:40.701Z,24.70
2023-03-22T07:29:13.181Z,24.80
2023-03-22T07:31:45.977Z,24.30
2023-03-22T07:34:34.342Z,25.30
2023-03-22T07:37:11.252Z,23.90
2023-03-22T07:39:43.197Z,24.00
2023-03-22T07:42:15.685Z,17.70
2023-03-22T07:44:49.836Z,25.30
2023-03-22T07:47:39.515Z,25.90
2023-03-22T07:50:33.625Z,24.70
2023-03-22T07:53:07.871Z,25.60
2023-03-22T07:55:42.188Z,24.60
2023-03-22T07:58:15.087Z,26.30
2023-03-22T08:00:49.694Z,24.90
2023-03-22T08:03:42.014Z,22.90
2023-03-22T08:06:25.394Z,22.70
2023-03-22T08:08:57.426Z,23.60
2023-03-22T08:11:31.310Z,23.70
2023-03-22T08:14:03.872Z,24.00
2023-03-22T08:16:38.412Z,24.60
2023-03-22T08:19:11.666Z,22.40
2023-03-22T08:21:43.614Z,21.30
2023-03-22T08:24:24.952Z,23.60
2023-03-22T08:27:05.923Z,24.80
2023-03-22T08:29:47.500Z,24.50
2023-03-22T08:32:20.431Z,23.60
2023-03-22T08:37:23.051Z,22.40
2023-03-22T08:42:33.251Z,22.60
2023-03-22T08:45:07.389Z,21.90
2023-03-22T08:47:41.372Z,22.70
2023-03-22T08:50:14.283Z,20.90
2023-03-22T08:52:53.903Z,20.90
2023-03-22T08:55:36.047Z,20.20
2023-03-22T08:58:14.683Z,21.60
2023-03-22T09:01:21.248Z,21.20
2023-03-22T09:03:58.515Z,21.80
2023-03-22T09:06:31.365Z,21.40
2023-03-22T09:11:35.522Z,21.00
2023-03-22T09:14:07.457Z,20.30
2023-03-22T09:16:39.713Z,22.30
2023-03-22T09:19:12.261Z,21.00
2023-03-22T09:24:20.877Z,20.10
2023-03-22T09:27:00.951Z,21.80
2023-03-22T09:29:33.254Z,20.80
2023-03-22T09:32:08.346Z,21.90
2023-03-22T09:34:41.935Z,20.80
2023-03-22T09:37:14.900Z,21.20
2023-03-22T09:39:54.220Z,19.20
2023-03-22T09:42:38.935Z,19.20
2023-03-22T09:45:17.695Z,18.30
2023-03-22T09:47:53.871Z,19.70
2023-03-22T09:50:27.991Z,19.10
2023-03-22T09:53:00.853Z,18.60
2023-03-22T09:58:20.911Z,20.00
2023-03-22T10:00:57.904Z,20.10
2023-03-22T10:03:50.657Z,19.00
2023-03-22T10:06:25.018Z,18.70
2023-03-22T10:09:06.845Z,18.70
2023-03-22T10:11:46.246Z,18.60
2023-03-22T10:14:31.470Z,18.70
2023-03-22T10:17:07.588Z,18.80
2023-03-22T10:19:47.380Z,18.30
2023-03-22T10:22:25.200Z,18.30
2023-03-22T10:24:58.186Z,18.30
2023-03-22T10:27:32.601Z,18.20
2023-03-22T10:30:09.314Z,18.30
2023-03-22T10:32:57.232Z,18.10
2023-03-22T10:35:33.536Z,16.90
2023-03-22T10:38:10.597Z,17.30
2023-03-22T10:40:42.875Z,17.80
2023-03-22T10:43:22.284Z,16.70
2023-03-22T10:45:56.688Z,17.00
2023-03-22T10:48:33.430Z,17.70
2023-03-22T10:51:06.298Z,16.20
2023-03-22T10:56:16.903Z,17.70
2023-03-22T10:58:49.977Z,17.90
2023-03-22T11:01:31.303Z,17.90
2023-03-22T11:04:10.558Z,16.30
2023-03-22T11:06:54.690Z,17.90
2023-03-22T11:09:27.868Z,16.20
2023-03-22T11:12:01.705Z,17.00
2023-03-22T11:14:36.942Z,16.50
2023-03-22T11:17:17.114Z,16.50
2023-03-22T11:19:57.254Z,15.80
2023-03-22T11:22:36.757Z,16.40
2023-03-22T11:25:18.045Z,16.00
2023-03-22T11:27:56.382Z,16.10
2023-03-22T11:30:29.949Z,14.30
2023-03-22T11:33:17.001Z,15.70
2023-03-22T11:35:56.455Z,15.00
2023-03-22T11:38:36.532Z,15.00
2023-03-22T11:41:13.144Z,15.30
2023-03-22T11:43:52.756Z,15.40
2023-03-22T11:46:26.787Z,13.70
2023-03-22T11:51:36.101Z,13.10
2023-03-22T11:54:15.917Z,14.50
2023-03-22T11:56:50.615Z,14.50
2023-03-22T11:59:27.858Z,13.40
2023-03-22T12:02:06.917Z,14.10
2023-03-22T12:04:42.853Z,13.50
2023-03-22T12:07:19.509Z,13.20
2023-03-22T12:09:58.977Z,14.60
2023-03-22T12:12:36.121Z,13.50
2023-03-22T12:15:14.140Z,14.10
2023-03-22T12:17:50.326Z,12.80
2023-03-22T12:20:32.845Z,13.20
2023-03-22T12:23:10.578Z,11.80
2023-03-22T12:25:46.308Z,11.50
2023-03-22T12:28:22.228Z,13.00
2023-03-22T12:30:58.569Z,12.90
2023-03-22T12:33:33.963Z,13.40
2023-03-22T12:36:09.275Z,11.10
2023-03-22T12:38:48.278Z,11.70
2023-03-22T12:41:26.586Z,11.70
2023-03-22T12:44:01.511Z,12.50
2023-03-22T12:46:37.492Z,13.00
2023-03-22T12:49:19.474Z,12.10
2023-03-22T12:51:53.353Z,12.40
2023-03-22T12:54:28.225Z,11.70
2023-03-22T12:57:01.207Z,11.60
2023-03-22T12:59:34.524Z,12.30
2023-03-22T13:02:16.992Z,12.40
2023-03-22T13:04:58.234Z,12.80
2023-03-22T13:07:56.451Z,12.80
2023-03-22T13:10:51.290Z,13.00
2023-03-22T13:13:48.021Z,13.60
2023-03-22T13:16:54.120Z,13.20
2023-03-22T13:19:54.431Z,13.40
2023-03-22T13:22:30.560Z,12.80
2023-03-22T13:25:29.147Z,12.80
2023-03-22T13:28:03.498Z,12.40
2023-03-22T13:30:51.124Z,11.30
2023-03-22T13:33:30.002Z,10.20
2023-03-22T13:36:07.491Z,10.70
2023-03-22T13:38:43.117Z,9.80
2023-03-22T13:41:23.079Z,10.70
2023-03-22T13:43:57.678Z,9.30
2023-03-22T13:46:48.002Z,9.90
2023-03-22T13:49:32.352Z,9.60
2023-03-22T13:52:08.343Z,9.20
2023-03-22T13:54:45.185Z,9.00
2023-03-22T13:57:48.004Z,8.70
2023-03-22T14:00:48.071Z,8.00
2023-03-22T14:03:29.634Z,8.90
2023-03-22T14:06:19.842Z,8.10
2023-03-22T14:08:55.517Z,7.50
2023-03-22T14:11:32.669Z,8.10
2023-03-22T14:14:09.531Z,8.00
2023-03-22T14:16:47.654Z,8.60
2023-03-22T14:19:24.990Z,8.30
